Muleshoe, Texas
Current Conditions -  °F | °C
As of 12:35 AM on Wednesday 28 Jan 2015 (Local Time) from KCVN Reporting Station
Clear Clear  
Wind Chill: 40°   Ceiling: Unl
Heat Index: 46°   Visibility: NA
Dew Point: 34°   Wind: 14mph
Humidity: 62%   Direction: 260°W
Pressure: 30.14"   Gusts: NA
Location:  34.23°N, 102.72°W
Report Text: KCVN 280635Z AUTO 26012KT CLR 08/01 A3014 RMK AO1
Loading
Personal Weather Stations






























Interactive Weather Map New forecast layout! Learn more

10-Day Weather Forecast

Advertisements
Track Severe Weather on mobile